sensor_id;sensor_type;location;lat;lon;timestamp;P1;durP1;ratioP1;P2;durP2;ratioP2
20734;SDS011;10528;52.124;5.196;2023-02-03T00:02:05;11.75;;;3.03;;
20734;SDS011;10528;52.124;5.196;2023-02-03T00:04:32;14.57;;;2.80;;
20734;SDS011;10528;52.124;5.196;2023-02-03T00:06:58;12.85;;;2.50;;
20734;SDS011;10528;52.124;5.196;2023-02-03T00:09:25;10.05;;;2.30;;
20734;SDS011;10528;52.124;5.196;2023-02-03T00:11:52;12.55;;;2.58;;
20734;SDS011;10528;52.124;5.196;2023-02-03T00:14:19;9.07;;;2.25;;
20734;SDS011;10528;52.124;5.196;2023-02-03T00:16:47;12.68;;;2.63;;
20734;SDS011;10528;52.124;5.196;2023-02-03T00:19:14;12.00;;;2.50;;
20734;SDS011;10528;52.124;5.196;2023-02-03T00:21:43;10.65;;;2.58;;
20734;SDS011;10528;52.124;5.196;2023-02-03T00:24:10;10.10;;;2.72;;
20734;SDS011;10528;52.124;5.196;2023-02-03T00:26:43;9.63;;;2.38;;
20734;SDS011;10528;52.124;5.196;2023-02-03T00:29:10;8.25;;;2.33;;
20734;SDS011;10528;52.124;5.196;2023-02-03T00:31:37;10.27;;;3.30;;
20734;SDS011;10528;52.124;5.196;2023-02-03T00:34:04;11.02;;;2.53;;
20734;SDS011;10528;52.124;5.196;2023-02-03T00:36:31;14.90;;;2.63;;
20734;SDS011;10528;52.124;5.196;2023-02-03T00:38:59;10.18;;;2.40;;
20734;SDS011;10528;52.124;5.196;2023-02-03T00:41:27;12.45;;;2.70;;
20734;SDS011;10528;52.124;5.196;2023-02-03T00:43:59;10.00;;;2.38;;
20734;SDS011;10528;52.124;5.196;2023-02-03T00:46:25;9.02;;;2.92;;
20734;SDS011;10528;52.124;5.196;2023-02-03T00:48:52;12.52;;;2.42;;
20734;SDS011;10528;52.124;5.196;2023-02-03T00:51:19;8.75;;;2.80;;
20734;SDS011;10528;52.124;5.196;2023-02-03T00:53:46;8.27;;;2.30;;
20734;SDS011;10528;52.124;5.196;2023-02-03T00:56:14;13.40;;;2.95;;
20734;SDS011;10528;52.124;5.196;2023-02-03T00:58:42;9.30;;;2.40;;
20734;SDS011;10528;52.124;5.196;2023-02-03T01:01:09;11.68;;;2.45;;
20734;SDS011;10528;52.124;5.196;2023-02-03T01:03:36;9.95;;;2.60;;
20734;SDS011;10528;52.124;5.196;2023-02-03T01:06:38;12.18;;;2.58;;
20734;SDS011;10528;52.124;5.196;2023-02-03T01:08:57;10.30;;;2.65;;
20734;SDS011;10528;52.124;5.196;2023-02-03T01:11:25;11.35;;;2.90;;
20734;SDS011;10528;52.124;5.196;2023-02-03T01:13:53;7.82;;;2.10;;
20734;SDS011;10528;52.124;5.196;2023-02-03T01:16:24;10.52;;;2.58;;
20734;SDS011;10528;52.124;5.196;2023-02-03T01:18:54;8.60;;;2.30;;
20734;SDS011;10528;52.124;5.196;2023-02-03T01:21:23;8.98;;;2.33;;
20734;SDS011;10528;52.124;5.196;2023-02-03T01:23:52;10.45;;;2.40;;
20734;SDS011;10528;52.124;5.196;2023-02-03T01:26:20;8.95;;;2.15;;
20734;SDS011;10528;52.124;5.196;2023-02-03T01:28:49;10.98;;;2.67;;
20734;SDS011;10528;52.124;5.196;2023-02-03T01:31:28;8.65;;;2.55;;
20734;SDS011;10528;52.124;5.196;2023-02-03T01:34:00;11.15;;;2.60;;
20734;SDS011;10528;52.124;5.196;2023-02-03T01:36:29;9.32;;;2.22;;
20734;SDS011;10528;52.124;5.196;2023-02-03T01:38:57;9.27;;;2.28;;
20734;SDS011;10528;52.124;5.196;2023-02-03T01:41:26;9.23;;;2.55;;
20734;SDS011;10528;52.124;5.196;2023-02-03T01:43:57;14.63;;;2.10;;
20734;SDS011;10528;52.124;5.196;2023-02-03T01:46:40;8.20;;;2.13;;
20734;SDS011;10528;52.124;5.196;2023-02-03T01:51:56;13.73;;;2.25;;
20734;SDS011;10528;52.124;5.196;2023-02-03T01:54:27;9.13;;;2.35;;
20734;SDS011;10528;52.124;5.196;2023-02-03T01:57:03;8.52;;;2.17;;
20734;SDS011;10528;52.124;5.196;2023-02-03T01:59:38;10.55;;;2.40;;
20734;SDS011;10528;52.124;5.196;2023-02-03T02:02:06;7.22;;;2.10;;
20734;SDS011;10528;52.124;5.196;2023-02-03T02:04:40;13.05;;;2.35;;
20734;SDS011;10528;52.124;5.196;2023-02-03T02:07:20;12.80;;;2.80;;
20734;SDS011;10528;52.124;5.196;2023-02-03T02:09:48;11.43;;;2.10;;
20734;SDS011;10528;52.124;5.196;2023-02-03T02:12:16;8.55;;;2.17;;
20734;SDS011;10528;52.124;5.196;2023-02-03T02:14:43;9.60;;;2.92;;
20734;SDS011;10528;52.124;5.196;2023-02-03T02:17:20;10.38;;;2.20;;
20734;SDS011;10528;52.124;5.196;2023-02-03T02:34:13;8.88;;;2.03;;
20734;SDS011;10528;52.124;5.196;2023-02-03T02:40:03;8.63;;;1.60;;
20734;SDS011;10528;52.124;5.196;2023-02-03T02:43:14;5.40;;;1.45;;
20734;SDS011;10528;52.124;5.196;2023-02-03T02:45:51;6.30;;;1.58;;
20734;SDS011;10528;52.124;5.196;2023-02-03T02:51:07;6.25;;;1.42;;
20734;SDS011;10528;52.124;5.196;2023-02-03T02:53:40;5.90;;;1.25;;
20734;SDS011;10528;52.124;5.196;2023-02-03T02:56:15;7.38;;;1.40;;
20734;SDS011;10528;52.124;5.196;2023-02-03T02:58:46;3.63;;;1.00;;
20734;SDS011;10528;52.124;5.196;2023-02-03T03:01:16;5.20;;;1.17;;
20734;SDS011;10528;52.124;5.196;2023-02-03T03:03:44;6.70;;;1.27;;
20734;SDS011;10528;52.124;5.196;2023-02-03T03:06:12;7.55;;;1.52;;
20734;SDS011;10528;52.124;5.196;2023-02-03T03:08:49;8.10;;;1.38;;
20734;SDS011;10528;52.124;5.196;2023-02-03T03:11:23;5.80;;;1.25;;
20734;SDS011;10528;52.124;5.196;2023-02-03T03:13:57;5.90;;;1.40;;
20734;SDS011;10528;52.124;5.196;2023-02-03T03:16:28;6.32;;;1.15;;
20734;SDS011;10528;52.124;5.196;2023-02-03T03:19:06;5.45;;;1.20;;
20734;SDS011;10528;52.124;5.196;2023-02-03T03:21:42;6.25;;;2.08;;
20734;SDS011;10528;52.124;5.196;2023-02-03T03:24:17;4.68;;;1.40;;
20734;SDS011;10528;52.124;5.196;2023-02-03T03:29:51;8.40;;;1.30;;
20734;SDS011;10528;52.124;5.196;2023-02-03T03:32:23;15.57;;;1.75;;
20734;SDS011;10528;52.124;5.196;2023-02-03T03:34:53;6.00;;;1.48;;
20734;SDS011;10528;52.124;5.196;2023-02-03T03:37:23;5.93;;;1.17;;
20734;SDS011;10528;52.124;5.196;2023-02-03T03:42:40;7.85;;;1.52;;
20734;SDS011;10528;52.124;5.196;2023-02-03T03:45:15;4.63;;;1.20;;
20734;SDS011;10528;52.124;5.196;2023-02-03T03:50:52;6.40;;;1.63;;
20734;SDS011;10528;52.124;5.196;2023-02-03T03:53:26;5.45;;;1.60;;
20734;SDS011;10528;52.124;5.196;2023-02-03T03:55:58;6.60;;;1.20;;
20734;SDS011;10528;52.124;5.196;2023-02-03T03:58:30;6.55;;;1.20;;
20734;SDS011;10528;52.124;5.196;2023-02-03T04:01:01;6.43;;;1.10;;
20734;SDS011;10528;52.124;5.196;2023-02-03T04:03:34;3.65;;;1.30;;
20734;SDS011;10528;52.124;5.196;2023-02-03T04:06:09;6.38;;;1.30;;
20734;SDS011;10528;52.124;5.196;2023-02-03T04:08:36;7.22;;;1.15;;
20734;SDS011;10528;52.124;5.196;2023-02-03T04:11:04;5.35;;;1.27;;
20734;SDS011;10528;52.124;5.196;2023-02-03T04:13:32;7.15;;;1.40;;
20734;SDS011;10528;52.124;5.196;2023-02-03T04:15:58;6.90;;;0.98;;
20734;SDS011;10528;52.124;5.196;2023-02-03T04:18:25;7.32;;;1.25;;
20734;SDS011;10528;52.124;5.196;2023-02-03T04:20:52;5.10;;;1.20;;
20734;SDS011;10528;52.124;5.196;2023-02-03T04:23:19;4.15;;;1.10;;
20734;SDS011;10528;52.124;5.196;2023-02-03T04:25:46;4.00;;;1.15;;
20734;SDS011;10528;52.124;5.196;2023-02-03T04:28:13;3.63;;;0.90;;
20734;SDS011;10528;52.124;5.196;2023-02-03T04:30:40;5.97;;;1.30;;
20734;SDS011;10528;52.124;5.196;2023-02-03T04:33:06;5.55;;;1.27;;
20734;SDS011;10528;52.124;5.196;2023-02-03T04:35:33;5.82;;;1.20;;
20734;SDS011;10528;52.124;5.196;2023-02-03T04:38:00;5.20;;;1.17;;
20734;SDS011;10528;52.124;5.196;2023-02-03T04:40:27;5.47;;;1.10;;
20734;SDS011;10528;52.124;5.196;2023-02-03T04:42:54;3.35;;;1.17;;
20734;SDS011;10528;52.124;5.196;2023-02-03T04:45:21;4.07;;;1.30;;
20734;SDS011;10528;52.124;5.196;2023-02-03T04:47:50;5.88;;;0.90;;
20734;SDS011;10528;52.124;5.196;2023-02-03T04:50:19;7.20;;;1.33;;
20734;SDS011;10528;52.124;5.196;2023-02-03T04:52:46;4.43;;;1.73;;
20734;SDS011;10528;52.124;5.196;2023-02-03T04:55:13;5.53;;;1.38;;
20734;SDS011;10528;52.124;5.196;2023-02-03T04:57:40;5.43;;;1.50;;
20734;SDS011;10528;52.124;5.196;2023-02-03T05:00:07;6.30;;;1.38;;
20734;SDS011;10528;52.124;5.196;2023-02-03T05:02:35;7.57;;;1.38;;
20734;SDS011;10528;52.124;5.196;2023-02-03T05:05:01;7.70;;;1.42;;
20734;SDS011;10528;52.124;5.196;2023-02-03T05:07:28;7.60;;;1.40;;
20734;SDS011;10528;52.124;5.196;2023-02-03T05:09:55;9.13;;;1.40;;
20734;SDS011;10528;52.124;5.196;2023-02-03T05:12:22;6.28;;;1.30;;
20734;SDS011;10528;52.124;5.196;2023-02-03T05:14:49;8.50;;;1.70;;
20734;SDS011;10528;52.124;5.196;2023-02-03T05:17:15;5.45;;;1.40;;
20734;SDS011;10528;52.124;5.196;2023-02-03T05:19:42;8.05;;;1.60;;
20734;SDS011;10528;52.124;5.196;2023-02-03T05:22:09;7.28;;;1.58;;
20734;SDS011;10528;52.124;5.196;2023-02-03T05:24:36;7.25;;;1.58;;
20734;SDS011;10528;52.124;5.196;2023-02-03T05:27:03;9.45;;;1.55;;
20734;SDS011;10528;52.124;5.196;2023-02-03T05:29:30;4.00;;;1.20;;
20734;SDS011;10528;52.124;5.196;2023-02-03T05:31:56;6.70;;;1.15;;
20734;SDS011;10528;52.124;5.196;2023-02-03T05:34:23;8.35;;;1.40;;
20734;SDS011;10528;52.124;5.196;2023-02-03T05:36:50;8.82;;;1.50;;
20734;SDS011;10528;52.124;5.196;2023-02-03T05:39:17;4.70;;;1.17;;
20734;SDS011;10528;52.124;5.196;2023-02-03T05:41:44;4.93;;;1.20;;
20734;SDS011;10528;52.124;5.196;2023-02-03T05:44:27;7.93;;;1.27;;
20734;SDS011;10528;52.124;5.196;2023-02-03T05:46:58;5.18;;;1.17;;
20734;SDS011;10528;52.124;5.196;2023-02-03T05:49:25;6.55;;;1.30;;
20734;SDS011;10528;52.124;5.196;2023-02-03T05:51:52;12.88;;;1.85;;
20734;SDS011;10528;52.124;5.196;2023-02-03T05:54:20;11.10;;;1.65;;
20734;SDS011;10528;52.124;5.196;2023-02-03T05:56:47;7.03;;;1.33;;
20734;SDS011;10528;52.124;5.196;2023-02-03T05:59:14;6.53;;;1.80;;
20734;SDS011;10528;52.124;5.196;2023-02-03T06:01:41;10.27;;;1.58;;
20734;SDS011;10528;52.124;5.196;2023-02-03T06:04:08;8.55;;;2.00;;
20734;SDS011;10528;52.124;5.196;2023-02-03T06:06:35;5.60;;;1.33;;
20734;SDS011;10528;52.124;5.196;2023-02-03T06:09:03;8.45;;;1.50;;
20734;SDS011;10528;52.124;5.196;2023-02-03T06:11:33;12.48;;;2.05;;
20734;SDS011;10528;52.124;5.196;2023-02-03T06:14:01;10.32;;;1.65;;
20734;SDS011;10528;52.124;5.196;2023-02-03T06:16:29;7.35;;;1.70;;
20734;SDS011;10528;52.124;5.196;2023-02-03T06:18:56;7.55;;;1.30;;
20734;SDS011;10528;52.124;5.196;2023-02-03T06:21:27;6.03;;;1.33;;
20734;SDS011;10528;52.124;5.196;2023-02-03T06:23:54;7.75;;;1.75;;
20734;SDS011;10528;52.124;5.196;2023-02-03T06:26:21;11.93;;;1.65;;
20734;SDS011;10528;52.124;5.196;2023-02-03T06:28:48;9.27;;;1.58;;
20734;SDS011;10528;52.124;5.196;2023-02-03T06:31:15;10.20;;;1.85;;
20734;SDS011;10528;52.124;5.196;2023-02-03T06:33:42;9.15;;;1.95;;
20734;SDS011;10528;52.124;5.196;2023-02-03T06:36:09;8.63;;;1.50;;
20734;SDS011;10528;52.124;5.196;2023-02-03T06:38:36;7.95;;;1.92;;
20734;SDS011;10528;52.124;5.196;2023-02-03T06:41:03;8.80;;;1.83;;
20734;SDS011;10528;52.124;5.196;2023-02-03T06:43:30;8.30;;;1.45;;
20734;SDS011;10528;52.124;5.196;2023-02-03T06:45:57;10.35;;;2.20;;
20734;SDS011;10528;52.124;5.196;2023-02-03T06:48:24;8.18;;;1.85;;
20734;SDS011;10528;52.124;5.196;2023-02-03T06:50:50;6.03;;;1.30;;
20734;SDS011;10528;52.124;5.196;2023-02-03T06:53:17;8.60;;;1.80;;
20734;SDS011;10528;52.124;5.196;2023-02-03T06:55:44;8.93;;;1.95;;
20734;SDS011;10528;52.124;5.196;2023-02-03T06:58:13;6.55;;;1.65;;
20734;SDS011;10528;52.124;5.196;2023-02-03T07:00:40;9.18;;;1.75;;
20734;SDS011;10528;52.124;5.196;2023-02-03T07:03:07;10.07;;;1.75;;
20734;SDS011;10528;52.124;5.196;2023-02-03T07:05:34;7.38;;;1.60;;
20734;SDS011;10528;52.124;5.196;2023-02-03T07:08:02;7.95;;;2.17;;
20734;SDS011;10528;52.124;5.196;2023-02-03T07:10:28;7.90;;;1.60;;
20734;SDS011;10528;52.124;5.196;2023-02-03T07:13:00;7.70;;;1.67;;
20734;SDS011;10528;52.124;5.196;2023-02-03T07:15:29;8.32;;;2.05;;
20734;SDS011;10528;52.124;5.196;2023-02-03T07:17:56;9.15;;;1.80;;
20734;SDS011;10528;52.124;5.196;2023-02-03T07:20:23;7.30;;;2.35;;
20734;SDS011;10528;52.124;5.196;2023-02-03T07:22:53;10.00;;;1.92;;
20734;SDS011;10528;52.124;5.196;2023-02-03T07:25:22;11.90;;;2.00;;
20734;SDS011;10528;52.124;5.196;2023-02-03T07:27:50;9.95;;;1.70;;
20734;SDS011;10528;52.124;5.196;2023-02-03T07:30:17;11.75;;;2.33;;
20734;SDS011;10528;52.124;5.196;2023-02-03T07:32:47;13.50;;;2.40;;
20734;SDS011;10528;52.124;5.196;2023-02-03T07:35:16;8.32;;;1.98;;
20734;SDS011;10528;52.124;5.196;2023-02-03T07:37:44;8.77;;;2.33;;
20734;SDS011;10528;52.124;5.196;2023-02-03T07:40:11;10.52;;;1.85;;
20734;SDS011;10528;52.124;5.196;2023-02-03T07:42:43;11.15;;;2.15;;
20734;SDS011;10528;52.124;5.196;2023-02-03T07:45:13;10.38;;;2.00;;
20734;SDS011;10528;52.124;5.196;2023-02-03T07:47:42;9.43;;;2.00;;
20734;SDS011;10528;52.124;5.196;2023-02-03T07:50:10;7.53;;;2.03;;
20734;SDS011;10528;52.124;5.196;2023-02-03T07:52:38;10.88;;;2.92;;
20734;SDS011;10528;52.124;5.196;2023-02-03T07:55:05;7.25;;;1.83;;
20734;SDS011;10528;52.124;5.196;2023-02-03T07:57:33;10.40;;;2.03;;
20734;SDS011;10528;52.124;5.196;2023-02-03T08:00:00;8.52;;;1.92;;
20734;SDS011;10528;52.124;5.196;2023-02-03T08:02:37;10.45;;;2.17;;
20734;SDS011;10528;52.124;5.196;2023-02-03T08:05:04;11.13;;;2.13;;
20734;SDS011;10528;52.124;5.196;2023-02-03T08:07:31;10.57;;;1.83;;
20734;SDS011;10528;52.124;5.196;2023-02-03T08:09:58;14.02;;;2.10;;
20734;SDS011;10528;52.124;5.196;2023-02-03T08:12:25;8.95;;;1.83;;
20734;SDS011;10528;52.124;5.196;2023-02-03T08:14:52;9.23;;;1.90;;
20734;SDS011;10528;52.124;5.196;2023-02-03T08:17:19;14.13;;;1.95;;
20734;SDS011;10528;52.124;5.196;2023-02-03T08:19:45;7.13;;;1.83;;
20734;SDS011;10528;52.124;5.196;2023-02-03T08:22:12;6.72;;;1.98;;
20734;SDS011;10528;52.124;5.196;2023-02-03T08:24:42;9.57;;;1.65;;
20734;SDS011;10528;52.124;5.196;2023-02-03T08:27:14;11.38;;;2.25;;
20734;SDS011;10528;52.124;5.196;2023-02-03T08:29:44;10.50;;;2.20;;
20734;SDS011;10528;52.124;5.196;2023-02-03T08:32:13;8.90;;;1.60;;
20734;SDS011;10528;52.124;5.196;2023-02-03T08:34:43;6.65;;;1.50;;
20734;SDS011;10528;52.124;5.196;2023-02-03T08:37:11;9.10;;;1.95;;
20734;SDS011;10528;52.124;5.196;2023-02-03T08:39:41;9.85;;;2.10;;
20734;SDS011;10528;52.124;5.196;2023-02-03T08:42:09;11.20;;;1.90;;
20734;SDS011;10528;52.124;5.196;2023-02-03T08:44:36;8.85;;;1.77;;
20734;SDS011;10528;52.124;5.196;2023-02-03T08:47:04;11.07;;;1.90;;
20734;SDS011;10528;52.124;5.196;2023-02-03T08:49:32;9.35;;;1.83;;
20734;SDS011;10528;52.124;5.196;2023-02-03T08:52:00;7.97;;;3.10;;
20734;SDS011;10528;52.124;5.196;2023-02-03T08:54:27;12.95;;;3.25;;
20734;SDS011;10528;52.124;5.196;2023-02-03T08:56:54;6.75;;;1.73;;
20734;SDS011;10528;52.124;5.196;2023-02-03T08:59:21;11.23;;;3.47;;
20734;SDS011;10528;52.124;5.196;2023-02-03T09:01:48;16.13;;;4.43;;
20734;SDS011;10528;52.124;5.196;2023-02-03T09:04:16;5.82;;;1.42;;
20734;SDS011;10528;52.124;5.196;2023-02-03T09:06:45;8.60;;;1.88;;
20734;SDS011;10528;52.124;5.196;2023-02-03T09:09:14;8.82;;;1.90;;
20734;SDS011;10528;52.124;5.196;2023-02-03T09:11:41;10.10;;;1.90;;
20734;SDS011;10528;52.124;5.196;2023-02-03T09:14:09;10.45;;;2.75;;
20734;SDS011;10528;52.124;5.196;2023-02-03T09:16:36;8.50;;;1.70;;
20734;SDS011;10528;52.124;5.196;2023-02-03T09:19:04;11.07;;;1.85;;
20734;SDS011;10528;52.124;5.196;2023-02-03T09:21:31;6.75;;;1.90;;
20734;SDS011;10528;52.124;5.196;2023-02-03T09:24:11;11.98;;;1.90;;
20734;SDS011;10528;52.124;5.196;2023-02-03T09:26:38;17.27;;;2.55;;
20734;SDS011;10528;52.124;5.196;2023-02-03T09:29:05;9.18;;;2.08;;
20734;SDS011;10528;52.124;5.196;2023-02-03T09:31:32;6.18;;;1.75;;
20734;SDS011;10528;52.124;5.196;2023-02-03T09:33:59;7.53;;;1.80;;
20734;SDS011;10528;52.124;5.196;2023-02-03T09:36:26;8.30;;;2.40;;
20734;SDS011;10528;52.124;5.196;2023-02-03T09:38:53;6.15;;;1.60;;
20734;SDS011;10528;52.124;5.196;2023-02-03T09:47:08;7.15;;;1.58;;
20734;SDS011;10528;52.124;5.196;2023-02-03T09:49:51;8.25;;;1.92;;
20734;SDS011;10528;52.124;5.196;2023-02-03T09:52:25;12.00;;;2.15;;
20734;SDS011;10528;52.124;5.196;2023-02-03T09:55:00;7.47;;;1.60;;
20734;SDS011;10528;52.124;5.196;2023-02-03T09:57:31;10.30;;;1.65;;
20734;SDS011;10528;52.124;5.196;2023-02-03T10:00:15;8.45;;;1.60;;
20734;SDS011;10528;52.124;5.196;2023-02-03T10:08:35;5.03;;;1.50;;
20734;SDS011;10528;52.124;5.196;2023-02-03T10:20:14;8.20;;;1.50;;
20734;SDS011;10528;52.124;5.196;2023-02-03T10:23:15;9.98;;;1.60;;
20734;SDS011;10528;52.124;5.196;2023-02-03T10:25:51;11.95;;;1.60;;
20734;SDS011;10528;52.124;5.196;2023-02-03T10:28:30;9.52;;;1.83;;
20734;SDS011;10528;52.124;5.196;2023-02-03T10:31:18;9.35;;;1.70;;
20734;SDS011;10528;52.124;5.196;2023-02-03T10:33:56;9.85;;;1.70;;
20734;SDS011;10528;52.124;5.196;2023-02-03T10:36:44;5.53;;;1.38;;
20734;SDS011;10528;52.124;5.196;2023-02-03T10:39:35;10.05;;;2.05;;
20734;SDS011;10528;52.124;5.196;2023-02-03T10:42:08;10.88;;;1.67;;
20734;SDS011;10528;52.124;5.196;2023-02-03T10:44:39;8.98;;;2.42;;
20734;SDS011;10528;52.124;5.196;2023-02-03T10:50:15;7.88;;;1.70;;
20734;SDS011;10528;52.124;5.196;2023-02-03T10:52:45;12.85;;;1.90;;
20734;SDS011;10528;52.124;5.196;2023-02-03T10:57:52;9.93;;;1.73;;
20734;SDS011;10528;52.124;5.196;2023-02-03T11:00:21;6.15;;;1.52;;
20734;SDS011;10528;52.124;5.196;2023-02-03T11:03:03;8.63;;;1.75;;
20734;SDS011;10528;52.124;5.196;2023-02-03T11:08:30;6.35;;;1.67;;
20734;SDS011;10528;52.124;5.196;2023-02-03T11:11:04;9.95;;;2.30;;
20734;SDS011;10528;52.124;5.196;2023-02-03T11:13:39;9.05;;;1.77;;
20734;SDS011;10528;52.124;5.196;2023-02-03T11:16:10;7.30;;;2.22;;
20734;SDS011;10528;52.124;5.196;2023-02-03T11:18:52;7.65;;;1.58;;
20734;SDS011;10528;52.124;5.196;2023-02-03T11:26:44;7.93;;;1.98;;
20734;SDS011;10528;52.124;5.196;2023-02-03T11:31:57;6.75;;;1.75;;
20734;SDS011;10528;52.124;5.196;2023-02-03T11:34:32;17.13;;;4.97;;
20734;SDS011;10528;52.124;5.196;2023-02-03T11:42:33;11.10;;;2.03;;
20734;SDS011;10528;52.124;5.196;2023-02-03T11:45:12;9.98;;;2.15;;
20734;SDS011;10528;52.124;5.196;2023-02-03T11:59:39;7.15;;;2.08;;
20734;SDS011;10528;52.124;5.196;2023-02-03T12:02:53;8.75;;;1.63;;
20734;SDS011;10528;52.124;5.196;2023-02-03T12:11:36;9.50;;;2.42;;
20734;SDS011;10528;52.124;5.196;2023-02-03T12:14:46;6.65;;;1.60;;
20734;SDS011;10528;52.124;5.196;2023-02-03T12:18:11;6.57;;;2.15;;
20734;SDS011;10528;52.124;5.196;2023-02-03T12:21:54;6.10;;;1.60;;
20734;SDS011;10528;52.124;5.196;2023-02-03T12:30:21;10.27;;;1.95;;
20734;SDS011;10528;52.124;5.196;2023-02-03T12:32:56;9.27;;;2.10;;
20734;SDS011;10528;52.124;5.196;2023-02-03T12:35:38;9.05;;;1.73;;
20734;SDS011;10528;52.124;5.196;2023-02-03T12:41:00;6.95;;;1.98;;
20734;SDS011;10528;52.124;5.196;2023-02-03T12:48:56;8.00;;;2.00;;
20734;SDS011;10528;52.124;5.196;2023-02-03T12:51:53;6.00;;;2.35;;
20734;SDS011;10528;52.124;5.196;2023-02-03T12:54:30;8.98;;;2.80;;
20734;SDS011;10528;52.124;5.196;2023-02-03T13:00:31;9.98;;;2.25;;
20734;SDS011;10528;52.124;5.196;2023-02-03T13:03:27;9.52;;;2.25;;
20734;SDS011;10528;52.124;5.196;2023-02-03T13:06:23;10.90;;;2.13;;
20734;SDS011;10528;52.124;5.196;2023-02-03T13:12:54;10.63;;;2.50;;
20734;SDS011;10528;52.124;5.196;2023-02-03T13:15:30;9.35;;;2.40;;
20734;SDS011;10528;52.124;5.196;2023-02-03T13:18:14;11.20;;;2.33;;
20734;SDS011;10528;52.124;5.196;2023-02-03T13:20:56;9.20;;;2.33;;
20734;SDS011;10528;52.124;5.196;2023-02-03T13:23:23;9.32;;;2.22;;
20734;SDS011;10528;52.124;5.196;2023-02-03T13:28:46;12.82;;;2.72;;
20734;SDS011;10528;52.124;5.196;2023-02-03T13:34:18;17.25;;;2.78;;
20734;SDS011;10528;52.124;5.196;2023-02-03T13:37:11;12.38;;;2.45;;
20734;SDS011;10528;52.124;5.196;2023-02-03T13:40:22;12.75;;;2.03;;
20734;SDS011;10528;52.124;5.196;2023-02-03T13:43:18;12.70;;;2.58;;
20734;SDS011;10528;52.124;5.196;2023-02-03T13:46:04;9.85;;;2.45;;
20734;SDS011;10528;52.124;5.196;2023-02-03T13:48:36;18.67;;;2.33;;
20734;SDS011;10528;52.124;5.196;2023-02-03T13:51:07;13.48;;;3.10;;
20734;SDS011;10528;52.124;5.196;2023-02-03T13:53:42;9.13;;;2.17;;
20734;SDS011;10528;52.124;5.196;2023-02-03T13:56:30;14.77;;;2.50;;
20734;SDS011;10528;52.124;5.196;2023-02-03T13:59:05;12.57;;;2.53;;
20734;SDS011;10528;52.124;5.196;2023-02-03T14:01:41;11.93;;;2.85;;
20734;SDS011;10528;52.124;5.196;2023-02-03T14:09:19;16.73;;;2.90;;
20734;SDS011;10528;52.124;5.196;2023-02-03T14:14:44;9.77;;;2.15;;
20734;SDS011;10528;52.124;5.196;2023-02-03T14:19:59;11.73;;;2.30;;
20734;SDS011;10528;52.124;5.196;2023-02-03T14:22:54;16.80;;;2.97;;
20734;SDS011;10528;52.124;5.196;2023-02-03T14:25:31;12.73;;;2.55;;
20734;SDS011;10528;52.124;5.196;2023-02-03T14:31:11;19.55;;;3.13;;
20734;SDS011;10528;52.124;5.196;2023-02-03T14:33:55;19.02;;;3.00;;
20734;SDS011;10528;52.124;5.196;2023-02-03T14:47:10;14.35;;;4.07;;
20734;SDS011;10528;52.124;5.196;2023-02-03T14:58:04;19.02;;;3.47;;
20734;SDS011;10528;52.124;5.196;2023-02-03T15:00:45;19.63;;;3.30;;
20734;SDS011;10528;52.124;5.196;2023-02-03T15:03:15;12.90;;;3.22;;
20734;SDS011;10528;52.124;5.196;2023-02-03T15:05:48;18.55;;;3.65;;
20734;SDS011;10528;52.124;5.196;2023-02-03T15:11:26;24.30;;;4.43;;
20734;SDS011;10528;52.124;5.196;2023-02-03T15:14:19;19.38;;;3.55;;
20734;SDS011;10528;52.124;5.196;2023-02-03T15:16:51;18.83;;;3.75;;
20734;SDS011;10528;52.124;5.196;2023-02-03T15:19:40;19.65;;;3.85;;
20734;SDS011;10528;52.124;5.196;2023-02-03T15:22:21;19.83;;;2.92;;
20734;SDS011;10528;52.124;5.196;2023-02-03T15:24:51;18.20;;;2.90;;
20734;SDS011;10528;52.124;5.196;2023-02-03T15:27:26;14.65;;;2.90;;
20734;SDS011;10528;52.124;5.196;2023-02-03T15:29:56;15.50;;;3.80;;
20734;SDS011;10528;52.124;5.196;2023-02-03T15:32:31;28.27;;;4.85;;
20734;SDS011;10528;52.124;5.196;2023-02-03T15:35:05;18.77;;;3.47;;
20734;SDS011;10528;52.124;5.196;2023-02-03T15:37:43;20.73;;;4.78;;
20734;SDS011;10528;52.124;5.196;2023-02-03T15:40:20;16.88;;;6.03;;
20734;SDS011;10528;52.124;5.196;2023-02-03T15:42:55;15.25;;;4.93;;
20734;SDS011;10528;52.124;5.196;2023-02-03T15:45:37;19.27;;;4.55;;
20734;SDS011;10528;52.124;5.196;2023-02-03T15:50:42;16.42;;;4.05;;
20734;SDS011;10528;52.124;5.196;2023-02-03T15:53:47;19.02;;;4.70;;
20734;SDS011;10528;52.124;5.196;2023-02-03T15:56:31;21.30;;;6.93;;
20734;SDS011;10528;52.124;5.196;2023-02-03T15:59:03;27.27;;;7.93;;
20734;SDS011;10528;52.124;5.196;2023-02-03T16:01:43;16.25;;;3.72;;
20734;SDS011;10528;52.124;5.196;2023-02-03T16:04:10;17.65;;;3.35;;
20734;SDS011;10528;52.124;5.196;2023-02-03T16:06:39;23.20;;;3.70;;
20734;SDS011;10528;52.124;5.196;2023-02-03T16:09:31;18.20;;;3.20;;
20734;SDS011;10528;52.124;5.196;2023-02-03T16:14:57;16.08;;;4.35;;
20734;SDS011;10528;52.124;5.196;2023-02-03T16:22:41;22.00;;;6.95;;
20734;SDS011;10528;52.124;5.196;2023-02-03T16:25:26;23.23;;;7.93;;
20734;SDS011;10528;52.124;5.196;2023-02-03T16:28:00;18.08;;;4.57;;
20734;SDS011;10528;52.124;5.196;2023-02-03T16:30:56;27.15;;;6.97;;
20734;SDS011;10528;52.124;5.196;2023-02-03T16:33:47;18.08;;;5.45;;
20734;SDS011;10528;52.124;5.196;2023-02-03T16:36:38;17.98;;;5.15;;
20734;SDS011;10528;52.124;5.196;2023-02-03T16:39:27;18.85;;;3.55;;
20734;SDS011;10528;52.124;5.196;2023-02-03T16:42:17;15.52;;;3.25;;
20734;SDS011;10528;52.124;5.196;2023-02-03T16:45:10;15.35;;;4.35;;
20734;SDS011;10528;52.124;5.196;2023-02-03T16:48:02;16.65;;;3.88;;
20734;SDS011;10528;52.124;5.196;2023-02-03T16:50:48;17.17;;;4.05;;
20734;SDS011;10528;52.124;5.196;2023-02-03T16:53:20;12.05;;;3.60;;
20734;SDS011;10528;52.124;5.196;2023-02-03T16:55:56;22.27;;;4.65;;
20734;SDS011;10528;52.124;5.196;2023-02-03T16:58:27;18.70;;;4.03;;
20734;SDS011;10528;52.124;5.196;2023-02-03T17:00:54;19.65;;;4.00;;
20734;SDS011;10528;52.124;5.196;2023-02-03T17:03:26;15.90;;;3.72;;
20734;SDS011;10528;52.124;5.196;2023-02-03T17:05:54;18.52;;;3.45;;
20734;SDS011;10528;52.124;5.196;2023-02-03T17:08:23;18.45;;;3.60;;
20734;SDS011;10528;52.124;5.196;2023-02-03T17:10:51;15.55;;;3.40;;
20734;SDS011;10528;52.124;5.196;2023-02-03T17:13:19;14.80;;;3.88;;
20734;SDS011;10528;52.124;5.196;2023-02-03T17:15:49;14.35;;;4.47;;
20734;SDS011;10528;52.124;5.196;2023-02-03T17:18:20;18.52;;;5.50;;
20734;SDS011;10528;52.124;5.196;2023-02-03T17:20:47;16.02;;;4.00;;
20734;SDS011;10528;52.124;5.196;2023-02-03T17:23:15;16.02;;;3.72;;
20734;SDS011;10528;52.124;5.196;2023-02-03T17:25:43;19.35;;;4.18;;
20734;SDS011;10528;52.124;5.196;2023-02-03T17:28:13;16.85;;;3.72;;
20734;SDS011;10528;52.124;5.196;2023-02-03T17:30:41;18.95;;;3.78;;
20734;SDS011;10528;52.124;5.196;2023-02-03T17:33:08;13.77;;;3.22;;
20734;SDS011;10528;52.124;5.196;2023-02-03T17:35:40;17.23;;;3.70;;
20734;SDS011;10528;52.124;5.196;2023-02-03T17:38:09;14.27;;;3.80;;
20734;SDS011;10528;52.124;5.196;2023-02-03T17:40:41;17.10;;;3.80;;
20734;SDS011;10528;52.124;5.196;2023-02-03T17:43:27;20.15;;;4.07;;
20734;SDS011;10528;52.124;5.196;2023-02-03T17:46:17;14.35;;;3.47;;
20734;SDS011;10528;52.124;5.196;2023-02-03T17:49:05;15.80;;;3.40;;
20734;SDS011;10528;52.124;5.196;2023-02-03T17:51:49;18.33;;;3.55;;
20734;SDS011;10528;52.124;5.196;2023-02-03T17:54:34;16.27;;;4.00;;
20734;SDS011;10528;52.124;5.196;2023-02-03T17:57:01;23.67;;;3.40;;
20734;SDS011;10528;52.124;5.196;2023-02-03T17:59:28;15.60;;;3.35;;
20734;SDS011;10528;52.124;5.196;2023-02-03T18:01:55;17.77;;;3.58;;